Aviation Digital Data Service (ADDS)

Output produced by METARs form (0434 UTC 03 August 2015)
found at http://aviationweather.gov/adds/metars/
 
KCKB 030228Z 0302/0324 21003KT P6SM SKC 
     FM031000 19004KT P6SM BKN100 
     FM031500 23012G20KT P6SM SCT045 SCT100 
     FM032100 24008G17KT P6SM VCTS BKN045CB 
     FM032300 23010G20KT 5SM TSRA BKN035CB BKN080